createdAt,value
2022-11-21T00:01:19.120Z,99856.53
2022-11-21T00:04:25.297Z,99853.28
2022-11-21T00:07:32.848Z,99840.78
2022-11-21T00:10:41.120Z,99840.19
2022-11-21T00:13:48.583Z,99842.19
2022-11-21T00:16:57.602Z,99839.56
2022-11-21T00:20:06.152Z,99817.63
2022-11-21T00:23:12.016Z,99810.41
2022-11-21T00:26:18.113Z,99815.03
2022-11-21T00:29:24.393Z,99811.59
2022-11-21T00:32:30.773Z,99809.69
2022-11-21T00:35:40.519Z,99819.78
2022-11-21T00:38:47.560Z,99812.00
2022-11-21T00:41:55.586Z,99818.47
2022-11-21T00:45:03.099Z,99809.75
2022-11-21T00:48:09.630Z,99798.53
2022-11-21T00:51:16.930Z,99788.28
2022-11-21T00:54:25.842Z,99786.34
2022-11-21T00:57:31.732Z,99789.66
2022-11-21T01:00:42.517Z,99786.34
2022-11-21T01:03:50.967Z,99792.09
2022-11-21T01:06:59.879Z,99797.78
2022-11-21T01:10:05.298Z,99802.50
2022-11-21T01:13:15.006Z,99797.13
2022-11-21T01:16:23.230Z,99793.88
2022-11-21T01:19:30.795Z,99793.56
2022-11-21T01:22:36.736Z,99779.84
2022-11-21T01:25:48.262Z,99781.16
2022-11-21T01:28:55.453Z,99773.53
2022-11-21T01:32:03.692Z,99775.62
2022-11-21T01:35:12.375Z,99773.53
2022-11-21T01:38:20.792Z,99778.34
2022-11-21T01:41:29.994Z,99778.78
2022-11-21T01:44:48.876Z,99775.13
2022-11-21T01:47:54.292Z,99764.41
2022-11-21T01:51:06.185Z,99775.72
2022-11-21T01:54:15.068Z,99768.34
2022-11-21T01:57:27.558Z,99766.56
2022-11-21T02:00:37.836Z,99762.75
2022-11-21T02:03:48.668Z,99756.84
2022-11-21T02:06:57.960Z,99753.91
2022-11-21T02:10:09.993Z,99757.25
2022-11-21T02:13:19.893Z,99777.25
2022-11-21T02:16:26.436Z,99762.16
2022-11-21T02:19:48.957Z,99769.12
2022-11-21T02:23:08.408Z,99761.75
2022-11-21T02:26:16.076Z,99759.00
2022-11-21T02:29:23.053Z,99759.66
2022-11-21T02:32:39.439Z,99756.75
2022-11-21T02:35:44.646Z,99746.41
2022-11-21T02:38:54.418Z,99751.75
2022-11-21T02:42:07.340Z,99751.69
2022-11-21T02:45:23.068Z,99746.44
2022-11-21T02:48:29.481Z,99748.19
2022-11-21T02:51:36.437Z,99747.47
2022-11-21T02:54:42.708Z,99750.75
2022-11-21T02:57:51.500Z,99755.63
2022-11-21T03:00:58.197Z,99739.50
2022-11-21T03:04:06.362Z,99748.41
2022-11-21T03:07:15.989Z,99745.75
2022-11-21T03:10:25.594Z,99748.75
2022-11-21T03:13:32.061Z,99749.75
2022-11-21T03:16:40.993Z,99749.03
2022-11-21T03:19:51.387Z,99749.78
2022-11-21T03:23:00.429Z,99753.97
2022-11-21T03:26:06.437Z,99747.97
2022-11-21T03:29:13.436Z,99750.53
2022-11-21T03:32:20.853Z,99745.66
2022-11-21T03:35:26.658Z,99736.44
2022-11-21T03:38:33.721Z,99734.56
2022-11-21T03:41:42.179Z,99727.78
2022-11-21T03:44:48.612Z,99730.41
2022-11-21T03:47:56.074Z,99723.91
2022-11-21T03:51:03.223Z,99717.16
2022-11-21T03:54:09.418Z,99727.69
2022-11-21T03:57:14.671Z,99725.56
2022-11-21T04:00:21.278Z,99722.88
2022-11-21T04:03:26.199Z,99711.66
2022-11-21T04:06:32.831Z,99702.78
2022-11-21T04:09:43.265Z,99698.94
2022-11-21T04:12:48.645Z,99695.41
2022-11-21T04:16:01.696Z,99691.81
2022-11-21T04:19:08.700Z,99695.00
2022-11-21T04:22:19.351Z,99692.41
2022-11-21T04:25:25.074Z,99691.50
2022-11-21T04:28:33.727Z,99677.06
2022-11-21T04:31:43.454Z,99687.63
2022-11-21T04:34:51.265Z,99685.03
2022-11-21T04:38:00.106Z,99678.41
2022-11-21T04:41:08.381Z,99672.25
2022-11-21T04:44:14.728Z,99678.53
2022-11-21T04:47:22.073Z,99671.13
2022-11-21T04:50:27.342Z,99674.41
2022-11-21T04:53:36.292Z,99664.94
2022-11-21T04:56:45.754Z,99668.13
2022-11-21T04:59:53.479Z,99651.56
2022-11-21T05:03:05.878Z,99663.84
2022-11-21T05:06:11.643Z,99657.22
2022-11-21T05:09:21.884Z,99667.75
2022-11-21T05:12:48.032Z,99662.47
2022-11-21T05:15:58.668Z,99666.00
2022-11-21T05:19:06.024Z,99661.75
2022-11-21T05:22:11.683Z,99657.13
2022-11-21T05:25:18.174Z,99660.72
2022-11-21T05:28:23.402Z,99662.34
2022-11-21T05:31:31.355Z,99658.50
2022-11-21T05:34:38.451Z,99654.50
2022-11-21T05:37:44.862Z,99651.25
2022-11-21T05:40:52.272Z,99657.81
2022-11-21T05:43:56.380Z,99650.19
2022-11-21T05:47:02.593Z,99642.72
2022-11-21T05:50:09.877Z,99647.34
2022-11-21T05:53:18.372Z,99647.34
2022-11-21T05:56:22.635Z,99646.91
2022-11-21T05:59:28.232Z,99647.44
2022-11-21T06:02:53.218Z,99649.69
2022-11-21T06:06:02.157Z,99648.75
2022-11-21T06:09:06.188Z,99645.25
2022-11-21T06:12:10.263Z,99649.63
2022-11-21T06:15:13.329Z,99659.03
2022-11-21T06:18:17.744Z,99649.06
2022-11-21T06:21:26.478Z,99651.88
2022-11-21T06:24:31.641Z,99652.72
2022-11-21T06:27:34.864Z,99657.00
2022-11-21T06:30:38.867Z,99662.06
2022-11-21T06:33:42.381Z,99665.81
2022-11-21T06:36:46.475Z,99674.22
2022-11-21T06:39:49.833Z,99670.38
2022-11-21T06:42:53.504Z,99667.00
2022-11-21T06:45:57.717Z,99667.00
2022-11-21T06:49:03.639Z,99673.22
2022-11-21T06:52:06.760Z,99689.06
2022-11-21T06:55:10.868Z,99694.09
2022-11-21T06:58:14.161Z,99696.22
2022-11-21T07:01:18.699Z,99708.81
2022-11-21T07:04:21.647Z,99700.28
2022-11-21T07:07:25.090Z,99704.00
2022-11-21T07:10:28.610Z,99714.38
2022-11-21T07:13:32.655Z,99711.91
2022-11-21T07:16:35.828Z,99702.19
2022-11-21T07:19:41.498Z,99711.13
2022-11-21T07:22:44.456Z,99713.75
2022-11-21T07:25:49.078Z,99706.44
2022-11-21T07:28:53.547Z,99707.25
2022-11-21T07:31:57.896Z,99704.09
2022-11-21T07:35:01.100Z,99699.66
2022-11-21T07:38:04.954Z,99702.50
2022-11-21T07:41:08.834Z,99707.38
2022-11-21T07:44:12.015Z,99711.41
2022-11-21T07:47:14.756Z,99704.28
2022-11-21T07:50:18.272Z,99707.59
2022-11-21T07:53:21.433Z,99713.03
2022-11-21T07:56:27.749Z,99712.59
2022-11-21T07:59:31.566Z,99718.72
2022-11-21T08:02:35.313Z,99727.97
2022-11-21T08:05:39.182Z,99722.56
2022-11-21T08:08:41.811Z,99719.94
2022-11-21T08:11:45.841Z,99730.41
2022-11-21T08:14:48.621Z,99734.56
2022-11-21T08:17:51.972Z,99732.41
2022-11-21T08:20:55.459Z,99740.13
2022-11-21T08:23:59.305Z,99729.84
2022-11-21T08:27:03.039Z,99741.31
2022-11-21T08:30:07.610Z,99740.50
2022-11-21T08:33:11.204Z,99738.81
2022-11-21T08:36:15.348Z,99742.78
2022-11-21T08:39:18.982Z,99740.78
2022-11-21T08:42:23.752Z,99742.19
2022-11-21T08:45:26.503Z,99750.34
2022-11-21T08:48:30.532Z,99753.78
2022-11-21T08:51:37.021Z,99758.47
2022-11-21T08:54:40.836Z,99762.41
2022-11-21T08:57:44.305Z,99766.28
2022-11-21T09:00:48.489Z,99764.16
2022-11-21T09:03:53.091Z,99761.31
2022-11-21T09:06:56.816Z,99758.50
2022-11-21T09:10:00.664Z,99752.72
2022-11-21T09:13:04.171Z,99753.94
2022-11-21T09:16:26.943Z,99749.34
2022-11-21T09:19:31.433Z,99739.41
2022-11-21T09:22:35.021Z,99748.28
2022-11-21T09:25:38.745Z,99752.62
2022-11-21T09:28:42.052Z,99752.06
2022-11-21T09:31:46.271Z,99749.69
2022-11-21T09:34:50.604Z,99744.56
2022-11-21T09:37:54.116Z,99739.41
2022-11-21T09:41:00.573Z,99741.19
2022-11-21T09:44:10.862Z,99749.25
2022-11-21T09:47:27.025Z,99754.38
2022-11-21T09:50:35.483Z,99753.66
2022-11-21T09:53:51.258Z,99752.13
2022-11-21T09:56:56.519Z,99753.44
2022-11-21T10:00:00.145Z,99749.44
2022-11-21T10:03:03.928Z,99752.03
2022-11-21T10:06:11.057Z,99747.81
2022-11-21T10:09:26.563Z,99743.22
2022-11-21T10:12:52.635Z,99742.03
2022-11-21T10:16:02.386Z,99742.78
2022-11-21T10:19:14.948Z,99740.44
2022-11-21T10:22:18.826Z,99726.44
2022-11-21T10:25:27.452Z,99731.47
2022-11-21T10:28:40.120Z,99735.44
2022-11-21T10:31:47.084Z,99723.34
2022-11-21T10:34:53.804Z,99715.00
2022-11-21T10:38:02.152Z,99715.84
2022-11-21T10:41:28.827Z,99704.09
2022-11-21T10:44:51.373Z,99699.34
2022-11-21T10:47:54.978Z,99694.94
2022-11-21T10:51:12.015Z,99695.97
2022-11-21T10:54:35.370Z,99696.78
2022-11-21T10:57:44.782Z,99695.00
2022-11-21T11:00:57.068Z,99701.00
2022-11-21T11:04:28.200Z,99698.78
2022-11-21T11:07:33.490Z,99690.28
2022-11-21T11:10:43.174Z,99694.16
2022-11-21T11:13:58.442Z,99693.19
2022-11-21T11:17:04.181Z,99685.44
2022-11-21T11:20:27.623Z,99688.22
2022-11-21T11:23:30.313Z,99690.28
2022-11-21T11:26:33.468Z,99678.72
2022-11-21T11:29:50.688Z,99683.03
2022-11-21T11:32:55.025Z,99665.34
2022-11-21T11:36:13.306Z,99669.03
2022-11-21T11:39:20.746Z,99666.63
2022-11-21T11:42:42.532Z,99660.88
2022-11-21T11:46:10.226Z,99641.03
2022-11-21T11:49:21.705Z,99649.50
2022-11-21T11:52:27.363Z,99637.72
2022-11-21T11:55:36.960Z,99639.88
2022-11-21T11:58:40.138Z,99638.59
2022-11-21T12:02:03.673Z,99637.59
2022-11-21T12:05:13.124Z,99626.87
2022-11-21T12:08:40.666Z,99631.19
2022-11-21T12:12:06.735Z,99621.75
2022-11-21T12:15:37.913Z,99616.94
2022-11-21T12:18:54.997Z,99610.56
2022-11-21T12:21:58.151Z,99603.84
2022-11-21T12:25:01.250Z,99595.84
2022-11-21T12:28:06.342Z,99596.69
2022-11-21T12:31:15.295Z,99589.81
2022-11-21T12:34:36.549Z,99593.38
2022-11-21T12:37:47.100Z,99586.38
2022-11-21T12:41:24.519Z,99580.56
2022-11-21T12:44:30.996Z,99580.16
2022-11-21T12:48:01.368Z,99580.53
2022-11-21T12:51:45.984Z,99578.16
2022-11-21T12:54:57.895Z,99572.13
2022-11-21T12:58:09.955Z,99577.09
2022-11-21T13:01:21.528Z,99578.78
2022-11-21T13:04:28.067Z,99574.75
2022-11-21T13:07:31.398Z,99574.13
2022-11-21T13:10:35.489Z,99572.88
2022-11-21T13:13:40.743Z,99573.50
2022-11-21T13:16:48.329Z,99580.50
2022-11-21T13:19:55.205Z,99587.75
2022-11-21T13:23:00.270Z,99590.03
2022-11-21T13:26:22.973Z,99592.66
2022-11-21T13:29:27.168Z,99585.88
2022-11-21T13:32:40.081Z,99577.53
2022-11-21T13:35:52.495Z,99589.16
2022-11-21T13:38:56.136Z,99578.91
2022-11-21T13:42:20.761Z,99583.34
2022-11-21T13:45:44.138Z,99579.09
2022-11-21T13:48:57.308Z,99575.25
2022-11-21T13:52:03.253Z,99581.13
2022-11-21T13:55:26.028Z,99582.50
2022-11-21T13:58:29.760Z,99579.13
2022-11-21T14:01:49.473Z,99578.69
2022-11-21T14:05:02.856Z,99575.31
2022-11-21T14:08:32.788Z,99583.50
2022-11-21T14:11:41.513Z,99582.06
2022-11-21T14:15:07.965Z,99581.03
2022-11-21T14:18:22.013Z,99573.38
2022-11-21T14:21:30.198Z,99576.59
2022-11-21T14:24:33.756Z,99583.22
2022-11-21T14:27:45.075Z,99578.41
2022-11-21T14:30:48.610Z,99579.31
2022-11-21T14:33:57.057Z,99581.63
2022-11-21T14:37:06.043Z,99577.72
2022-11-21T14:40:13.251Z,99577.22
2022-11-21T14:43:33.051Z,99579.91
2022-11-21T14:46:37.291Z,99583.94
2022-11-21T14:50:07.249Z,99585.97
2022-11-21T14:53:12.469Z,99600.97
2022-11-21T14:56:34.153Z,99600.13
2022-11-21T14:59:41.787Z,99602.94
2022-11-21T15:02:47.085Z,99599.97
2022-11-21T15:06:05.212Z,99604.84
2022-11-21T15:10:36.128Z,99600.56
2022-11-21T15:12:44.653Z,99607.84
2022-11-21T15:15:52.275Z,99608.62
2022-11-21T15:18:57.019Z,99612.03
2022-11-21T15:22:03.308Z,99606.66
2022-11-21T15:25:18.588Z,99613.72
2022-11-21T15:28:22.587Z,99616.28
2022-11-21T15:31:27.736Z,99621.53
2022-11-21T15:34:35.876Z,99625.81
2022-11-21T15:37:48.841Z,99621.38
2022-11-21T15:41:05.807Z,99627.84
2022-11-21T15:44:11.869Z,99625.50
2022-11-21T15:47:17.425Z,99629.41
2022-11-21T15:50:23.849Z,99637.94
2022-11-21T15:53:28.819Z,99646.00
2022-11-21T15:56:33.322Z,99645.31
2022-11-21T15:59:37.275Z,99644.91
2022-11-21T16:02:41.359Z,99633.56
2022-11-21T16:05:45.447Z,99634.41
2022-11-21T16:08:48.525Z,99641.06
2022-11-21T16:11:53.250Z,99627.78
2022-11-21T16:14:57.212Z,99627.09
2022-11-21T16:18:03.033Z,99627.28
2022-11-21T16:21:08.060Z,99642.22
2022-11-21T16:24:12.355Z,99631.38
2022-11-21T16:27:16.515Z,99632.66
2022-11-21T16:30:23.333Z,99611.13
2022-11-21T16:33:28.093Z,99614.47
2022-11-21T16:36:33.625Z,99615.97
2022-11-21T16:39:39.301Z,99615.59
2022-11-21T16:42:47.025Z,99610.13
2022-11-21T16:45:53.387Z,99614.16
2022-11-21T16:49:00.980Z,99609.78
2022-11-21T16:52:06.577Z,99615.78
2022-11-21T16:55:12.260Z,99616.88
2022-11-21T16:58:17.723Z,99617.31
2022-11-21T17:01:26.980Z,99611.53
2022-11-21T17:04:32.831Z,99617.19
2022-11-21T17:07:40.340Z,99610.59
2022-11-21T17:10:46.623Z,99609.06
2022-11-21T17:13:55.615Z,99619.69
2022-11-21T17:17:02.999Z,99624.25
2022-11-21T17:20:10.649Z,99629.75
2022-11-21T17:23:17.208Z,99625.31
2022-11-21T17:26:27.763Z,99623.94
2022-11-21T17:29:33.062Z,99638.56
2022-11-21T17:32:41.085Z,99644.00
2022-11-21T17:35:48.584Z,99641.13
2022-11-21T17:38:57.472Z,99640.72
2022-11-21T17:42:05.394Z,99646.38
2022-11-21T17:45:11.854Z,99640.00
2022-11-21T17:48:18.290Z,99646.62
2022-11-21T17:51:30.109Z,99649.22
2022-11-21T17:54:35.833Z,99639.44
2022-11-21T17:57:44.096Z,99639.44
2022-11-21T18:00:55.555Z,99644.25
2022-11-21T18:04:08.931Z,99650.06
2022-11-21T18:07:20.114Z,99649.25
2022-11-21T18:10:42.987Z,99653.09
2022-11-21T18:13:50.776Z,99641.81
2022-11-21T18:16:58.158Z,99648.31
2022-11-21T18:20:07.249Z,99647.09
2022-11-21T18:23:19.290Z,99637.03
2022-11-21T18:26:27.470Z,99648.63
2022-11-21T18:29:36.618Z,99633.75
2022-11-21T18:32:44.355Z,99633.59
2022-11-21T18:35:51.905Z,99628.50
2022-11-21T18:39:04.823Z,99630.13
2022-11-21T18:42:12.498Z,99637.16
2022-11-21T18:45:16.884Z,99642.63
2022-11-21T18:48:23.594Z,99640.13
2022-11-21T18:51:29.056Z,99642.56
2022-11-21T18:54:33.836Z,99638.97
2022-11-21T18:57:38.207Z,99639.50
2022-11-21T19:00:42.727Z,99638.09
2022-11-21T19:03:47.937Z,99639.19
2022-11-21T19:06:55.443Z,99637.41
2022-11-21T19:10:27.301Z,99627.09
2022-11-21T19:13:25.494Z,99620.94
2022-11-21T19:16:32.199Z,99619.47
2022-11-21T19:19:38.563Z,99620.97
2022-11-21T19:22:46.062Z,99623.56
2022-11-21T19:25:59.932Z,99633.72
2022-11-21T19:29:08.112Z,99631.22
2022-11-21T19:32:14.265Z,99635.19
2022-11-21T19:35:20.339Z,99634.47
2022-11-21T19:38:25.844Z,99638.81
2022-11-21T19:41:31.332Z,99640.28
2022-11-21T19:44:38.599Z,99648.66
2022-11-21T19:47:46.439Z,99638.81
2022-11-21T19:50:58.418Z,99647.06
2022-11-21T19:54:05.861Z,99646.59
2022-11-21T19:57:14.229Z,99640.94
2022-11-21T20:00:24.436Z,99657.44
2022-11-21T20:03:30.848Z,99655.66
2022-11-21T20:06:36.298Z,99653.44
2022-11-21T20:09:43.910Z,99659.28
2022-11-21T20:12:48.120Z,99656.81
2022-11-21T20:15:53.926Z,99660.38
2022-11-21T20:19:02.071Z,99673.94
2022-11-21T20:22:07.579Z,99669.34
2022-11-21T20:25:13.860Z,99670.19
2022-11-21T20:28:21.107Z,99653.69
2022-11-21T20:31:29.091Z,99661.91
2022-11-21T20:34:36.065Z,99657.03
2022-11-21T20:37:41.434Z,99657.44
2022-11-21T20:40:52.926Z,99652.69
2022-11-21T20:47:28.508Z,99661.12
2022-11-21T20:51:25.090Z,99649.06
2022-11-21T20:54:03.374Z,99652.03
2022-11-21T20:57:14.513Z,99645.88
2022-11-21T21:00:24.575Z,99642.81
2022-11-21T21:03:31.520Z,99635.94
2022-11-21T21:06:39.716Z,99642.19
2022-11-21T21:09:45.656Z,99643.91
2022-11-21T21:12:52.995Z,99630.31
2022-11-21T21:16:10.354Z,99630.41
2022-11-21T21:19:17.056Z,99624.88
2022-11-21T21:22:24.624Z,99621.75
2022-11-21T21:25:33.315Z,99620.81
2022-11-21T21:28:39.870Z,99614.63
2022-11-21T21:31:51.482Z,99608.56
2022-11-21T21:34:58.453Z,99599.03
2022-11-21T21:38:08.991Z,99596.44
2022-11-21T21:41:16.037Z,99594.50
2022-11-21T21:44:29.887Z,99589.94
2022-11-21T21:47:38.718Z,99601.22
2022-11-21T21:50:44.689Z,99595.31
2022-11-21T21:53:53.750Z,99595.34
2022-11-21T21:57:03.025Z,99596.44
2022-11-21T22:00:10.458Z,99603.06
2022-11-21T22:03:17.282Z,99602.50
2022-11-21T22:06:27.759Z,99599.78
2022-11-21T22:09:33.536Z,99607.66
2022-11-21T22:12:44.239Z,99599.25
2022-11-21T22:15:49.732Z,99605.59
2022-11-21T22:18:57.409Z,99605.06
2022-11-21T22:22:04.204Z,99605.34
2022-11-21T22:25:09.576Z,99607.69
2022-11-21T22:28:13.329Z,99608.38
2022-11-21T22:31:20.734Z,99603.69
2022-11-21T22:34:28.449Z,99608.38
2022-11-21T22:37:37.821Z,99611.25
2022-11-21T22:40:47.460Z,99612.94
2022-11-21T22:43:58.781Z,99617.63
2022-11-21T22:47:05.882Z,99618.72
2022-11-21T22:50:16.488Z,99617.47
2022-11-21T22:53:24.833Z,99619.13
2022-11-21T22:56:31.309Z,99620.25
2022-11-21T22:59:38.143Z,99618.16
2022-11-21T23:02:43.570Z,99613.19
2022-11-21T23:05:46.617Z,99615.22
2022-11-21T23:08:53.935Z,99613.31
2022-11-21T23:11:58.492Z,99610.00
2022-11-21T23:15:03.391Z,99611.22
2022-11-21T23:18:08.003Z,99601.31
2022-11-21T23:21:15.585Z,99602.56
2022-11-21T23:24:23.350Z,99590.84
2022-11-21T23:27:26.988Z,99587.69
2022-11-21T23:30:30.808Z,99590.56
2022-11-21T23:33:33.652Z,99582.56
2022-11-21T23:36:36.783Z,99571.12
2022-11-21T23:39:42.375Z,99568.25
2022-11-21T23:42:48.626Z,99571.84
2022-11-21T23:45:55.462Z,99568.81
2022-11-21T23:49:01.805Z,99575.00
2022-11-21T23:52:07.641Z,99579.94
2022-11-21T23:55:13.052Z,99569.03
2022-11-21T23:58:17.656Z,99566.84
